sensor_id;sensor_type;location;lat;lon;timestamp;pressure;altitude;pressure_sealevel;temperature;humidity
6423;BME280;3244;42.708;23.288;2023-01-27T00:00:02;94229.91;;;2.03;85.31
6423;BME280;3244;42.708;23.288;2023-01-27T00:02:30;94235.66;;;2.10;85.09
6423;BME280;3244;42.708;23.288;2023-01-27T00:04:57;94228.25;;;2.02;85.78
6423;BME280;3244;42.708;23.288;2023-01-27T00:07:24;94229.09;;;2.01;85.03
6423;BME280;3244;42.708;23.288;2023-01-27T00:09:51;94230.09;;;1.91;86.73
6423;BME280;3244;42.708;23.288;2023-01-27T00:12:19;94224.28;;;1.89;86.43
6423;BME280;3244;42.708;23.288;2023-01-27T00:15:06;94220.03;;;1.94;86.35
6423;BME280;3244;42.708;23.288;2023-01-27T00:17:33;94231.75;;;1.92;87.41
6423;BME280;3244;42.708;23.288;2023-01-27T00:20:00;94219.16;;;1.97;86.75
6423;BME280;3244;42.708;23.288;2023-01-27T00:22:27;94214.06;;;2.01;87.81
6423;BME280;3244;42.708;23.288;2023-01-27T00:25:11;94198.97;;;2.06;87.39
6423;BME280;3244;42.708;23.288;2023-01-27T00:27:38;94188.72;;;2.21;86.30
6423;BME280;3244;42.708;23.288;2023-01-27T00:30:09;94193.00;;;2.15;86.68
6423;BME280;3244;42.708;23.288;2023-01-27T00:32:36;94181.13;;;2.26;85.59
6423;BME280;3244;42.708;23.288;2023-01-27T00:35:20;94202.81;;;2.27;85.13
6423;BME280;3244;42.708;23.288;2023-01-27T00:37:47;94185.47;;;2.15;85.48
6423;BME280;3244;42.708;23.288;2023-01-27T00:40:15;94202.22;;;2.13;84.94
6423;BME280;3244;42.708;23.288;2023-01-27T00:42:42;94204.03;;;2.03;85.46
6423;BME280;3244;42.708;23.288;2023-01-27T00:45:11;94194.88;;;2.00;86.12
6423;BME280;3244;42.708;23.288;2023-01-27T00:47:55;94194.78;;;2.07;85.70
6423;BME280;3244;42.708;23.288;2023-01-27T00:50:22;94198.06;;;2.12;84.73
6423;BME280;3244;42.708;23.288;2023-01-27T00:52:49;94217.34;;;2.05;85.77
6423;BME280;3244;42.708;23.288;2023-01-27T00:55:17;94212.38;;;2.03;86.29
6423;BME280;3244;42.708;23.288;2023-01-27T00:57:43;94203.94;;;2.09;85.63
6423;BME280;3244;42.708;23.288;2023-01-27T01:00:13;94205.44;;;2.21;84.44
6423;BME280;3244;42.708;23.288;2023-01-27T01:02:40;94203.03;;;2.15;85.26
6423;BME280;3244;42.708;23.288;2023-01-27T01:05:07;94202.28;;;2.08;85.49
6423;BME280;3244;42.708;23.288;2023-01-27T01:07:34;94200.69;;;2.02;85.03
6423;BME280;3244;42.708;23.288;2023-01-27T01:10:01;94200.69;;;2.02;86.36
6423;BME280;3244;42.708;23.288;2023-01-27T01:12:28;94189.03;;;2.00;85.93
6423;BME280;3244;42.708;23.288;2023-01-27T01:14:54;94187.72;;;1.75;86.53
6423;BME280;3244;42.708;23.288;2023-01-27T01:17:22;94201.78;;;1.86;87.93
6423;BME280;3244;42.708;23.288;2023-01-27T01:19:49;94203.34;;;1.93;87.52
6423;BME280;3244;42.708;23.288;2023-01-27T01:22:16;94205.09;;;1.88;87.32
6423;BME280;3244;42.708;23.288;2023-01-27T01:24:42;94210.16;;;1.84;88.54
6423;BME280;3244;42.708;23.288;2023-01-27T01:27:09;94201.81;;;1.83;88.03
6423;BME280;3244;42.708;23.288;2023-01-27T01:29:37;94202.56;;;1.90;88.20
6423;BME280;3244;42.708;23.288;2023-01-27T01:32:04;94196.53;;;2.01;87.68
6423;BME280;3244;42.708;23.288;2023-01-27T01:34:35;94193.91;;;2.09;87.43
6423;BME280;3244;42.708;23.288;2023-01-27T01:37:02;94203.09;;;2.09;87.39
6423;BME280;3244;42.708;23.288;2023-01-27T01:39:30;94201.56;;;1.98;88.03
6423;BME280;3244;42.708;23.288;2023-01-27T01:41:57;94208.22;;;2.02;88.05
6423;BME280;3244;42.708;23.288;2023-01-27T01:44:26;94212.41;;;2.00;88.08
6423;BME280;3244;42.708;23.288;2023-01-27T01:46:53;94215.00;;;1.97;88.14
6423;BME280;3244;42.708;23.288;2023-01-27T01:49:24;94220.72;;;2.02;88.13
6423;BME280;3244;42.708;23.288;2023-01-27T01:51:57;94209.88;;;2.02;88.59
6423;BME280;3244;42.708;23.288;2023-01-27T01:54:26;94208.88;;;2.15;87.33
6423;BME280;3244;42.708;23.288;2023-01-27T01:56:56;94204.69;;;2.16;86.75
6423;BME280;3244;42.708;23.288;2023-01-27T01:59:29;94199.63;;;2.19;87.23
6423;BME280;3244;42.708;23.288;2023-01-27T02:02:01;94168.84;;;2.11;87.34
6423;BME280;3244;42.708;23.288;2023-01-27T02:04:31;94190.41;;;2.21;86.99
6423;BME280;3244;42.708;23.288;2023-01-27T02:07:05;94178.75;;;2.18;87.11
6423;BME280;3244;42.708;23.288;2023-01-27T02:09:33;94167.09;;;2.16;87.77
6423;BME280;3244;42.708;23.288;2023-01-27T02:12:00;94160.34;;;2.19;87.00
6423;BME280;3244;42.708;23.288;2023-01-27T02:14:27;94161.19;;;2.20;86.65
6423;BME280;3244;42.708;23.288;2023-01-27T02:16:54;94150.41;;;2.13;86.85
6423;BME280;3244;42.708;23.288;2023-01-27T02:19:24;94154.47;;;2.22;86.54
6423;BME280;3244;42.708;23.288;2023-01-27T02:21:53;94152.84;;;2.18;87.11
6423;BME280;3244;42.708;23.288;2023-01-27T02:24:27;94141.19;;;2.17;87.38
6423;BME280;3244;42.708;23.288;2023-01-27T02:26:58;94131.97;;;2.19;87.03
6423;BME280;3244;42.708;23.288;2023-01-27T02:29:24;94132.75;;;2.21;87.16
6423;BME280;3244;42.708;23.288;2023-01-27T02:31:52;94131.09;;;2.20;86.28
6423;BME280;3244;42.708;23.288;2023-01-27T02:34:22;94131.97;;;2.17;86.88
6423;BME280;3244;42.708;23.288;2023-01-27T02:36:53;94129.59;;;2.10;87.04
6423;BME280;3244;42.708;23.288;2023-01-27T02:39:28;94142.09;;;2.11;87.21
6423;BME280;3244;42.708;23.288;2023-01-27T02:41:58;94136.38;;;2.01;87.63
6423;BME280;3244;42.708;23.288;2023-01-27T02:44:26;94127.13;;;2.07;87.81
6423;BME280;3244;42.708;23.288;2023-01-27T02:46:52;94128.75;;;2.09;87.59
6423;BME280;3244;42.708;23.288;2023-01-27T02:49:19;94137.09;;;2.10;86.84
6423;BME280;3244;42.708;23.288;2023-01-27T02:51:46;94138.00;;;2.05;87.66
6423;BME280;3244;42.708;23.288;2023-01-27T02:54:12;94150.38;;;2.16;87.70
6423;BME280;3244;42.708;23.288;2023-01-27T02:56:39;94147.88;;;2.15;87.59
6423;BME280;3244;42.708;23.288;2023-01-27T02:59:07;94152.84;;;2.18;87.49
6423;BME280;3244;42.708;23.288;2023-01-27T03:01:34;94148.56;;;2.23;87.25
6423;BME280;3244;42.708;23.288;2023-01-27T03:04:01;94141.06;;;2.23;86.46
6423;BME280;3244;42.708;23.288;2023-01-27T03:06:28;94137.81;;;2.18;86.59
6423;BME280;3244;42.708;23.288;2023-01-27T03:08:54;94141.06;;;2.23;86.49
6423;BME280;3244;42.708;23.288;2023-01-27T03:11:21;94136.00;;;2.26;86.16
6423;BME280;3244;42.708;23.288;2023-01-27T03:14:02;94136.78;;;2.29;86.16
6423;BME280;3244;42.708;23.288;2023-01-27T03:16:30;94134.28;;;2.28;87.12
6423;BME280;3244;42.708;23.288;2023-01-27T03:19:14;94120.84;;;2.32;87.11
6423;BME280;3244;42.708;23.288;2023-01-27T03:21:41;94120.81;;;2.35;86.80
6423;BME280;3244;42.708;23.288;2023-01-27T03:24:09;94120.16;;;2.24;86.93
6423;BME280;3244;42.708;23.288;2023-01-27T03:26:36;94112.75;;;2.18;87.89
6423;BME280;3244;42.708;23.288;2023-01-27T03:29:03;94112.81;;;2.15;87.99
6423;BME280;3244;42.708;23.288;2023-01-27T03:31:49;94109.53;;;2.10;87.68
6423;BME280;3244;42.708;23.288;2023-01-27T03:34:16;94096.25;;;2.04;88.21
6423;BME280;3244;42.708;23.288;2023-01-27T03:36:42;94097.75;;;2.15;87.70
6423;BME280;3244;42.708;23.288;2023-01-27T03:39:28;94103.50;;;2.21;88.21
6423;BME280;3244;42.708;23.288;2023-01-27T03:42:12;94102.69;;;2.21;87.81
6423;BME280;3244;42.708;23.288;2023-01-27T03:44:57;94071.16;;;2.08;87.40
6423;BME280;3244;42.708;23.288;2023-01-27T03:47:42;94073.31;;;2.27;87.51
6423;BME280;3244;42.708;23.288;2023-01-27T03:50:09;94069.13;;;2.28;86.62
6423;BME280;3244;42.708;23.288;2023-01-27T03:52:38;94084.16;;;2.28;86.21
6423;BME280;3244;42.708;23.288;2023-01-27T03:55:05;94075.84;;;2.26;87.19
6423;BME280;3244;42.708;23.288;2023-01-27T03:57:35;94062.69;;;2.15;86.59
6423;BME280;3244;42.708;23.288;2023-01-27T04:00:03;94076.69;;;2.25;87.01
6423;BME280;3244;42.708;23.288;2023-01-27T04:02:31;94070.81;;;2.26;87.55
6423;BME280;3244;42.708;23.288;2023-01-27T04:05:17;94070.81;;;2.26;86.91
6423;BME280;3244;42.708;23.288;2023-01-27T04:08:01;94089.03;;;2.37;87.36
6423;BME280;3244;42.708;23.288;2023-01-27T04:10:30;94106.75;;;2.25;87.45
6423;BME280;3244;42.708;23.288;2023-01-27T04:12:57;94100.91;;;2.24;87.04
6423;BME280;3244;42.708;23.288;2023-01-27T04:15:22;94125.00;;;2.34;86.45
6423;BME280;3244;42.708;23.288;2023-01-27T04:17:49;94145.56;;;2.52;85.54
6423;BME280;3244;42.708;23.288;2023-01-27T04:20:17;94147.31;;;2.48;83.80
6423;BME280;3244;42.708;23.288;2023-01-27T04:22:44;94141.19;;;2.15;85.65
6423;BME280;3244;42.708;23.288;2023-01-27T04:25:11;94144.91;;;1.91;87.07
6423;BME280;3244;42.708;23.288;2023-01-27T04:27:37;94139.69;;;2.03;87.43
6423;BME280;3244;42.708;23.288;2023-01-27T04:30:05;94151.28;;;2.11;87.29
6423;BME280;3244;42.708;23.288;2023-01-27T04:32:32;94152.09;;;2.13;87.11
6423;BME280;3244;42.708;23.288;2023-01-27T04:34:59;94169.63;;;2.13;87.83
6423;BME280;3244;42.708;23.288;2023-01-27T04:37:27;94163.59;;;2.24;87.28
6423;BME280;3244;42.708;23.288;2023-01-27T04:39:54;94161.09;;;2.23;87.38
6423;BME280;3244;42.708;23.288;2023-01-27T04:42:21;94161.81;;;2.31;87.09
6423;BME280;3244;42.708;23.288;2023-01-27T04:44:47;94161.81;;;2.31;87.72
6423;BME280;3244;42.708;23.288;2023-01-27T04:47:14;94179.38;;;2.31;87.78
6423;BME280;3244;42.708;23.288;2023-01-27T04:49:41;94173.50;;;2.32;86.92
6423;BME280;3244;42.708;23.288;2023-01-27T04:52:08;94159.22;;;2.37;87.44
6423;BME280;3244;42.708;23.288;2023-01-27T04:54:36;94134.03;;;2.43;86.74
6423;BME280;3244;42.708;23.288;2023-01-27T04:57:02;94177.25;;;2.57;86.50
6423;BME280;3244;42.708;23.288;2023-01-27T04:59:29;94189.88;;;2.53;86.67
6423;BME280;3244;42.708;23.288;2023-01-27T05:01:56;94187.34;;;2.54;86.78
6423;BME280;3244;42.708;23.288;2023-01-27T05:04:23;94172.25;;;2.56;86.38
6423;BME280;3244;42.708;23.288;2023-01-27T05:06:51;94171.44;;;2.55;86.63
6423;BME280;3244;42.708;23.288;2023-01-27T05:09:17;94169.84;;;2.50;87.19
6423;BME280;3244;42.708;23.288;2023-01-27T05:11:46;94175.63;;;2.55;86.58
6423;BME280;3244;42.708;23.288;2023-01-27T05:14:12;94172.47;;;2.45;86.84
6423;BME280;3244;42.708;23.288;2023-01-27T05:16:39;94151.84;;;2.26;87.45
6423;BME280;3244;42.708;23.288;2023-01-27T05:19:07;94160.78;;;2.44;87.96
6423;BME280;3244;42.708;23.288;2023-01-27T05:21:34;94160.75;;;2.46;87.03
6423;BME280;3244;42.708;23.288;2023-01-27T05:24:00;94171.69;;;2.42;87.01
6423;BME280;3244;42.708;23.288;2023-01-27T05:26:27;94165.88;;;2.38;87.57
6423;BME280;3244;42.708;23.288;2023-01-27T05:28:57;94163.25;;;2.46;87.38
6423;BME280;3244;42.708;23.288;2023-01-27T05:31:25;94155.84;;;2.38;87.33
6423;BME280;3244;42.708;23.288;2023-01-27T05:33:53;94146.75;;;2.32;87.56
6423;BME280;3244;42.708;23.288;2023-01-27T05:36:22;94144.13;;;2.40;86.88
6423;BME280;3244;42.708;23.288;2023-01-27T05:38:49;94147.53;;;2.36;86.77
6423;BME280;3244;42.708;23.288;2023-01-27T05:41:17;94138.38;;;2.33;87.18
6423;BME280;3244;42.708;23.288;2023-01-27T05:43:46;94140.09;;;2.31;87.32
6423;BME280;3244;42.708;23.288;2023-01-27T05:46:19;94132.53;;;2.33;87.94
6423;BME280;3244;42.708;23.288;2023-01-27T05:48:47;94139.06;;;2.43;87.21
6423;BME280;3244;42.708;23.288;2023-01-27T05:51:16;94141.72;;;2.34;88.05
6423;BME280;3244;42.708;23.288;2023-01-27T05:53:44;94144.13;;;2.40;88.38
6423;BME280;3244;42.708;23.288;2023-01-27T05:56:12;94137.28;;;2.48;87.39
6423;BME280;3244;42.708;23.288;2023-01-27T05:58:40;94142.44;;;2.41;86.88
6423;BME280;3244;42.708;23.288;2023-01-27T06:01:07;94149.19;;;2.37;87.29
6423;BME280;3244;42.708;23.288;2023-01-27T06:03:36;94146.16;;;2.20;86.53
6423;BME280;3244;42.708;23.288;2023-01-27T06:06:04;94161.09;;;2.23;87.07
6423;BME280;3244;42.708;23.288;2023-01-27T06:08:32;94166.06;;;2.26;86.50
6423;BME280;3244;42.708;23.288;2023-01-27T06:10:59;94153.38;;;2.36;86.00
6423;BME280;3244;42.708;23.288;2023-01-27T06:13:26;94148.38;;;2.35;86.26
6423;BME280;3244;42.708;23.288;2023-01-27T06:15:53;94153.41;;;2.35;85.70
6423;BME280;3244;42.708;23.288;2023-01-27T06:18:20;94152.31;;;2.48;85.13
6423;BME280;3244;42.708;23.288;2023-01-27T06:20:48;94158.25;;;2.46;85.08
6423;BME280;3244;42.708;23.288;2023-01-27T06:23:16;94140.72;;;2.44;84.48
6423;BME280;3244;42.708;23.288;2023-01-27T06:25:44;94156.38;;;2.57;85.47
6423;BME280;3244;42.708;23.288;2023-01-27T06:28:11;94168.81;;;2.63;84.79
6423;BME280;3244;42.708;23.288;2023-01-27T06:30:39;94160.50;;;2.59;83.89
6423;BME280;3244;42.708;23.288;2023-01-27T06:33:07;94158.78;;;2.61;84.24
6423;BME280;3244;42.708;23.288;2023-01-27T06:35:36;94158.66;;;2.70;85.03
6423;BME280;3244;42.708;23.288;2023-01-27T06:38:06;94156.00;;;2.77;84.26
6423;BME280;3244;42.708;23.288;2023-01-27T06:40:34;94157.56;;;2.84;84.05
6423;BME280;3244;42.708;23.288;2023-01-27T06:43:00;94158.19;;;2.95;83.39
6423;BME280;3244;42.708;23.288;2023-01-27T06:45:27;94169.72;;;3.03;82.96
6423;BME280;3244;42.708;23.288;2023-01-27T06:47:55;94176.25;;;3.12;82.24
6423;BME280;3244;42.708;23.288;2023-01-27T06:50:22;94161.25;;;3.09;82.05
6423;BME280;3244;42.708;23.288;2023-01-27T06:52:50;94161.22;;;3.11;82.11
6423;BME280;3244;42.708;23.288;2023-01-27T06:55:18;94175.38;;;3.15;82.17
6423;BME280;3244;42.708;23.288;2023-01-27T06:57:45;94174.56;;;3.14;82.44
6423;BME280;3244;42.708;23.288;2023-01-27T07:00:13;94172.63;;;3.25;82.49
6423;BME280;3244;42.708;23.288;2023-01-27T07:02:41;94175.94;;;3.27;82.18
6423;BME280;3244;42.708;23.288;2023-01-27T07:05:08;94175.88;;;3.30;82.29
6423;BME280;3244;42.708;23.288;2023-01-27T07:07:34;94182.53;;;3.33;82.37
6423;BME280;3244;42.708;23.288;2023-01-27T07:10:01;94184.09;;;3.38;82.33
6423;BME280;3244;42.708;23.288;2023-01-27T07:12:30;94174.66;;;3.50;82.25
6423;BME280;3244;42.708;23.288;2023-01-27T07:14:58;94188.03;;;3.50;81.96
6423;BME280;3244;42.708;23.288;2023-01-27T07:17:25;94187.16;;;3.53;81.82
6423;BME280;3244;42.708;23.288;2023-01-27T07:19:52;94179.41;;;3.63;82.36
6423;BME280;3244;42.708;23.288;2023-01-27T07:22:18;94181.66;;;3.74;81.49
6423;BME280;3244;42.708;23.288;2023-01-27T07:24:45;94179.72;;;3.88;80.79
6423;BME280;3244;42.708;23.288;2023-01-27T07:27:12;94177.75;;;3.99;80.64
6423;BME280;3244;42.708;23.288;2023-01-27T07:29:40;94178.31;;;4.12;80.54
6423;BME280;3244;42.708;23.288;2023-01-27T07:32:07;94178.09;;;4.21;78.38
6423;BME280;3244;42.708;23.288;2023-01-27T07:34:34;94183.22;;;4.18;77.91
6423;BME280;3244;42.708;23.288;2023-01-27T07:37:00;94188.31;;;4.15;78.10
6423;BME280;3244;42.708;23.288;2023-01-27T07:39:29;94179.03;;;4.19;78.79
6423;BME280;3244;42.708;23.288;2023-01-27T07:41:57;94178.81;;;4.26;77.83
6423;BME280;3244;42.708;23.288;2023-01-27T07:44:25;94190.56;;;4.26;77.68
6423;BME280;3244;42.708;23.288;2023-01-27T07:46:54;94183.75;;;4.31;77.75
6423;BME280;3244;42.708;23.288;2023-01-27T07:49:20;94189.41;;;4.40;77.29
6423;BME280;3244;42.708;23.288;2023-01-27T07:51:47;94188.50;;;4.43;75.99
6423;BME280;3244;42.708;23.288;2023-01-27T07:54:14;94184.19;;;4.47;76.10
6423;BME280;3244;42.708;23.288;2023-01-27T07:56:41;94179.22;;;4.45;75.44
6423;BME280;3244;42.708;23.288;2023-01-27T07:59:09;94183.94;;;4.57;75.42
6423;BME280;3244;42.708;23.288;2023-01-27T08:01:36;94190.78;;;4.52;76.09
6423;BME280;3244;42.708;23.288;2023-01-27T08:04:05;94194.16;;;4.51;76.33
6423;BME280;3244;42.708;23.288;2023-01-27T08:06:32;94188.25;;;4.52;75.52
6423;BME280;3244;42.708;23.288;2023-01-27T08:08:59;94188.19;;;4.55;75.46
6423;BME280;3244;42.708;23.288;2023-01-27T08:11:25;94185.41;;;4.66;73.87
6423;BME280;3244;42.708;23.288;2023-01-27T08:13:52;94186.28;;;4.65;74.28
6423;BME280;3244;42.708;23.288;2023-01-27T08:16:19;94184.53;;;4.68;73.81
6423;BME280;3244;42.708;23.288;2023-01-27T08:18:45;94185.97;;;4.77;73.92
6423;BME280;3244;42.708;23.288;2023-01-27T08:21:14;94184.91;;;4.86;73.45
6423;BME280;3244;42.708;23.288;2023-01-27T08:23:41;94185.69;;;4.88;72.41
6423;BME280;3244;42.708;23.288;2023-01-27T08:26:07;94178.94;;;4.90;72.17
6423;BME280;3244;42.708;23.288;2023-01-27T08:28:35;94188.50;;;4.75;72.58
6423;BME280;3244;42.708;23.288;2023-01-27T08:31:04;94195.00;;;4.50;72.82
6423;BME280;3244;42.708;23.288;2023-01-27T08:33:31;94197.88;;;4.36;73.13
6423;BME280;3244;42.708;23.288;2023-01-27T08:36:01;94202.28;;;4.27;73.78
6423;BME280;3244;42.708;23.288;2023-01-27T08:38:29;94190.72;;;4.20;74.46
6423;BME280;3244;42.708;23.288;2023-01-27T08:40:56;94205.38;;;4.01;75.16
6423;BME280;3244;42.708;23.288;2023-01-27T08:43:23;94202.25;;;3.91;75.71
6423;BME280;3244;42.708;23.288;2023-01-27T08:45:51;94203.13;;;3.90;75.20
6423;BME280;3244;42.708;23.288;2023-01-27T08:48:17;94206.53;;;3.88;74.91
6423;BME280;3244;42.708;23.288;2023-01-27T08:50:44;94209.88;;;3.88;74.84
6423;BME280;3244;42.708;23.288;2023-01-27T08:53:11;94199.22;;;3.75;75.78
6423;BME280;3244;42.708;23.288;2023-01-27T08:55:39;94206.16;;;3.66;75.72
6423;BME280;3244;42.708;23.288;2023-01-27T08:58:06;94200.50;;;3.55;76.50
6423;BME280;3244;42.708;23.288;2023-01-27T09:00:34;94191.22;;;3.58;76.16
6423;BME280;3244;42.708;23.288;2023-01-27T09:03:00;94196.84;;;3.71;75.92
6423;BME280;3244;42.708;23.288;2023-01-27T09:05:27;94207.09;;;3.60;75.97
6423;BME280;3244;42.708;23.288;2023-01-27T09:07:54;94203.69;;;3.63;76.03
6423;BME280;3244;42.708;23.288;2023-01-27T09:10:21;94201.94;;;3.68;76.07
6423;BME280;3244;42.708;23.288;2023-01-27T09:12:49;94197.03;;;3.62;76.53
6423;BME280;3244;42.708;23.288;2023-01-27T09:15:16;94188.50;;;3.69;76.02
6423;BME280;3244;42.708;23.288;2023-01-27T09:17:43;94190.00;;;3.76;75.89
6423;BME280;3244;42.708;23.288;2023-01-27T09:20:10;94191.03;;;3.69;75.49
6423;BME280;3244;42.708;23.288;2023-01-27T09:22:38;94196.00;;;3.70;76.69
6423;BME280;3244;42.708;23.288;2023-01-27T09:25:06;94195.72;;;3.84;76.24
6423;BME280;3244;42.708;23.288;2023-01-27T09:27:33;94193.75;;;3.97;75.76
6423;BME280;3244;42.708;23.288;2023-01-27T09:30:02;94186.25;;;3.95;76.25
6423;BME280;3244;42.708;23.288;2023-01-27T09:32:29;94186.34;;;3.91;75.55
6423;BME280;3244;42.708;23.288;2023-01-27T09:34:55;94180.25;;;4.01;75.50
6423;BME280;3244;42.708;23.288;2023-01-27T09:37:22;94180.13;;;4.07;74.68
6423;BME280;3244;42.708;23.288;2023-01-27T09:39:52;94169.97;;;4.12;74.72
6423;BME280;3244;42.708;23.288;2023-01-27T09:45:24;94166.06;;;3.98;75.10
6423;BME280;3244;42.708;23.288;2023-01-27T09:48:38;94161.13;;;3.95;75.03
6423;BME280;3244;42.708;23.288;2023-01-27T09:51:17;94160.41;;;3.90;74.80
6423;BME280;3244;42.708;23.288;2023-01-27T09:54:14;94152.03;;;3.90;74.96
6423;BME280;3244;42.708;23.288;2023-01-27T09:56:52;94152.91;;;3.87;74.82
6423;BME280;3244;42.708;23.288;2023-01-27T09:59:41;94154.84;;;3.76;74.95
6423;BME280;3244;42.708;23.288;2023-01-27T10:02:24;94150.81;;;3.69;76.01
6423;BME280;3244;42.708;23.288;2023-01-27T10:05:16;94141.47;;;3.74;76.21
6423;BME280;3244;42.708;23.288;2023-01-27T10:08:02;94139.84;;;3.71;76.45
6423;BME280;3244;42.708;23.288;2023-01-27T10:10:43;94138.75;;;3.83;76.30
6423;BME280;3244;42.708;23.288;2023-01-27T10:13:19;94132.81;;;3.87;75.73
6423;BME280;3244;42.708;23.288;2023-01-27T10:15:57;94129.50;;;3.85;75.85
6423;BME280;3244;42.708;23.288;2023-01-27T10:18:41;94127.75;;;3.89;76.50
6423;BME280;3244;42.708;23.288;2023-01-27T10:21:15;94127.06;;;3.82;75.92
6423;BME280;3244;42.708;23.288;2023-01-27T10:23:55;94138.75;;;3.83;75.48
6423;BME280;3244;42.708;23.288;2023-01-27T10:26:30;94132.25;;;3.74;75.64
6423;BME280;3244;42.708;23.288;2023-01-27T10:29:07;94129.88;;;3.70;75.97
6423;BME280;3244;42.708;23.288;2023-01-27T10:31:36;94143.41;;;3.63;76.39
6423;BME280;3244;42.708;23.288;2023-01-27T10:34:11;94134.94;;;3.67;76.70
6423;BME280;3244;42.708;23.288;2023-01-27T10:36:45;94130.78;;;3.66;76.05
6423;BME280;3244;42.708;23.288;2023-01-27T10:39:20;94131.72;;;3.62;76.44
6423;BME280;3244;42.708;23.288;2023-01-27T10:41:55;94130.13;;;3.58;76.42
6423;BME280;3244;42.708;23.288;2023-01-27T10:44:52;94134.44;;;3.51;76.52
6423;BME280;3244;42.708;23.288;2023-01-27T10:47:34;94136.13;;;3.51;76.10
6423;BME280;3244;42.708;23.288;2023-01-27T10:50:10;94129.56;;;3.45;76.68
6423;BME280;3244;42.708;23.288;2023-01-27T10:52:42;94122.31;;;3.31;76.91
6423;BME280;3244;42.708;23.288;2023-01-27T10:55:15;94120.34;;;3.46;76.97
6423;BME280;3244;42.708;23.288;2023-01-27T10:57:47;94126.94;;;3.50;77.13
6423;BME280;3244;42.708;23.288;2023-01-27T11:00:19;94126.78;;;3.57;77.11
6423;BME280;3244;42.708;23.288;2023-01-27T11:02:56;94132.56;;;3.61;76.34
6423;BME280;3244;42.708;23.288;2023-01-27T11:05:30;94126.63;;;3.65;76.34
6423;BME280;3244;42.708;23.288;2023-01-27T11:08:02;94110.94;;;3.54;75.39
6423;BME280;3244;42.708;23.288;2023-01-27T11:10:35;94122.41;;;3.65;76.14
6423;BME280;3244;42.708;23.288;2023-01-27T11:13:03;94124.88;;;3.68;76.01
6423;BME280;3244;42.708;23.288;2023-01-27T11:15:32;94126.56;;;3.68;76.14
6423;BME280;3244;42.708;23.288;2023-01-27T11:18:03;94124.84;;;3.70;76.00
6423;BME280;3244;42.708;23.288;2023-01-27T11:20:34;94120.56;;;3.72;76.15
6423;BME280;3244;42.708;23.288;2023-01-27T11:23:11;94118.00;;;3.75;76.69
6423;BME280;3244;42.708;23.288;2023-01-27T11:25:46;94111.19;;;3.80;76.32
6423;BME280;3244;42.708;23.288;2023-01-27T11:28:24;94101.94;;;3.82;75.44
6423;BME280;3244;42.708;23.288;2023-01-27T11:31:01;94104.75;;;3.70;75.59
6423;BME280;3244;42.708;23.288;2023-01-27T11:33:41;94109.66;;;3.73;75.41
6423;BME280;3244;42.708;23.288;2023-01-27T11:36:13;94098.03;;;3.70;75.37
6423;BME280;3244;42.708;23.288;2023-01-27T11:38:40;94099.78;;;3.67;75.82
6423;BME280;3244;42.708;23.288;2023-01-27T11:41:07;94095.59;;;3.67;75.87
6423;BME280;3244;42.708;23.288;2023-01-27T11:43:34;94099.09;;;3.60;76.36
6423;BME280;3244;42.708;23.288;2023-01-27T11:46:05;94101.63;;;3.59;76.53
6423;BME280;3244;42.708;23.288;2023-01-27T11:48:37;94099.00;;;3.63;76.30
6423;BME280;3244;42.708;23.288;2023-01-27T11:51:11;94093.03;;;3.69;75.49
6423;BME280;3244;42.708;23.288;2023-01-27T11:53:39;94098.94;;;3.66;75.77
6423;BME280;3244;42.708;23.288;2023-01-27T11:56:10;94086.34;;;3.68;76.24
6423;BME280;3244;42.708;23.288;2023-01-27T11:58:44;94099.91;;;3.61;76.60
6423;BME280;3244;42.708;23.288;2023-01-27T12:01:16;94089.84;;;3.61;76.85
6423;BME280;3244;42.708;23.288;2023-01-27T12:03:50;94091.38;;;3.68;76.37
6423;BME280;3244;42.708;23.288;2023-01-27T12:06:25;94088.00;;;3.69;76.22
6423;BME280;3244;42.708;23.288;2023-01-27T12:08:55;94091.44;;;3.65;76.19
6423;BME280;3244;42.708;23.288;2023-01-27T12:11:24;94094.94;;;3.58;76.40
6423;BME280;3244;42.708;23.288;2023-01-27T12:13:54;94092.44;;;3.58;77.27
6423;BME280;3244;42.708;23.288;2023-01-27T12:16:23;94092.72;;;3.46;77.14
6423;BME280;3244;42.708;23.288;2023-01-27T12:18:54;94090.06;;;3.52;77.26
6423;BME280;3244;42.708;23.288;2023-01-27T12:21:34;94079.34;;;3.45;77.59
6423;BME280;3244;42.708;23.288;2023-01-27T12:24:16;94082.41;;;3.56;76.75
6423;BME280;3244;42.708;23.288;2023-01-27T12:26:46;94101.53;;;3.63;76.31
6423;BME280;3244;42.708;23.288;2023-01-27T12:29:17;94096.47;;;3.65;76.83
6423;BME280;3244;42.708;23.288;2023-01-27T12:31:47;94092.94;;;3.72;76.45
6423;BME280;3244;42.708;23.288;2023-01-27T12:34:23;94094.81;;;3.64;76.52
6423;BME280;3244;42.708;23.288;2023-01-27T12:36:51;94092.44;;;3.58;76.66
6423;BME280;3244;42.708;23.288;2023-01-27T12:39:41;94092.28;;;3.65;77.35
6423;BME280;3244;42.708;23.288;2023-01-27T12:42:32;94098.13;;;3.66;76.89
6423;BME280;3244;42.708;23.288;2023-01-27T12:45:16;94089.50;;;3.76;77.81
6423;BME280;3244;42.708;23.288;2023-01-27T12:47:54;94091.88;;;3.82;76.64
6423;BME280;3244;42.708;23.288;2023-01-27T12:50:24;94094.13;;;3.94;76.34
6423;BME280;3244;42.708;23.288;2023-01-27T12:52:52;94090.75;;;3.95;76.17
6423;BME280;3244;42.708;23.288;2023-01-27T12:55:31;94101.41;;;4.03;76.65
6423;BME280;3244;42.708;23.288;2023-01-27T12:57:59;94092.09;;;4.08;76.06
6423;BME280;3244;42.708;23.288;2023-01-27T13:00:26;94090.19;;;4.18;76.22
6423;BME280;3244;42.708;23.288;2023-01-27T13:03:01;94084.38;;;4.16;76.47
6423;BME280;3244;42.708;23.288;2023-01-27T13:05:34;94090.91;;;4.22;76.25
6423;BME280;3244;42.708;23.288;2023-01-27T13:08:01;94095.00;;;4.26;76.31
6423;BME280;3244;42.708;23.288;2023-01-27T13:10:30;94078.84;;;4.36;76.16
6423;BME280;3244;42.708;23.288;2023-01-27T13:12:58;94091.19;;;4.45;75.59
6423;BME280;3244;42.708;23.288;2023-01-27T13:15:28;94085.50;;;4.69;75.71
6423;BME280;3244;42.708;23.288;2023-01-27T13:17:56;94085.72;;;4.93;74.90
6423;BME280;3244;42.708;23.288;2023-01-27T13:20:26;94090.41;;;5.05;73.17
6423;BME280;3244;42.708;23.288;2023-01-27T13:22:58;94096.13;;;5.10;73.17
6423;BME280;3244;42.708;23.288;2023-01-27T13:25:30;94096.13;;;5.10;72.14
6423;BME280;3244;42.708;23.288;2023-01-27T13:28:02;94102.91;;;5.08;72.82
6423;BME280;3244;42.708;23.288;2023-01-27T13:30:35;94093.22;;;4.94;73.78
6423;BME280;3244;42.708;23.288;2023-01-27T13:33:21;94096.13;;;4.79;73.55
6423;BME280;3244;42.708;23.288;2023-01-27T13:35:56;94097.53;;;4.58;74.15
6423;BME280;3244;42.708;23.288;2023-01-27T13:38:30;94096.38;;;4.39;74.90
6423;BME280;3244;42.708;23.288;2023-01-27T13:41:03;94093.25;;;4.29;75.31